createdAt,value
2018-05-09T00:00:28.526Z,12.40
2018-05-09T00:02:56.077Z,12.40
2018-05-09T00:05:23.595Z,12.40
2018-05-09T00:07:51.125Z,12.50
2018-05-09T00:10:18.639Z,12.40
2018-05-09T00:12:46.935Z,12.30
2018-05-09T00:15:14.468Z,12.30
2018-05-09T00:17:42.776Z,12.20
2018-05-09T00:20:10.294Z,12.20
2018-05-09T00:22:38.605Z,12.20
2018-05-09T00:25:06.133Z,12.10
2018-05-09T00:27:33.681Z,12.00
2018-05-09T00:30:01.196Z,12.00
2018-05-09T00:32:28.729Z,11.90
2018-05-09T00:34:57.001Z,11.90
2018-05-09T00:37:26.013Z,11.80
2018-05-09T00:39:54.286Z,11.90
2018-05-09T00:42:21.793Z,11.80
2018-05-09T00:44:49.389Z,11.90
2018-05-09T00:47:17.668Z,11.90
2018-05-09T00:49:45.973Z,11.80
2018-05-09T00:52:13.497Z,11.80
2018-05-09T00:54:41.795Z,11.70
2018-05-09T00:57:09.323Z,11.70
2018-05-09T00:59:37.658Z,11.60
2018-05-09T01:02:05.173Z,11.60
2018-05-09T01:04:33.479Z,11.80
2018-05-09T01:07:00.993Z,11.70
2018-05-09T01:09:29.347Z,11.70
2018-05-09T01:11:56.871Z,11.70
2018-05-09T01:14:24.405Z,11.70
2018-05-09T01:16:52.707Z,11.50
2018-05-09T01:19:20.219Z,11.50
2018-05-09T01:21:48.530Z,11.60
2018-05-09T01:24:16.084Z,11.50
2018-05-09T01:26:44.390Z,11.50
2018-05-09T01:29:11.901Z,11.50
2018-05-09T01:31:39.442Z,11.50
2018-05-09T01:34:07.037Z,11.50
2018-05-09T01:36:35.341Z,11.40
2018-05-09T01:39:02.864Z,11.40
2018-05-09T01:41:31.169Z,11.40
2018-05-09T01:43:59.457Z,11.30
2018-05-09T01:46:27.102Z,11.30
2018-05-09T01:48:55.386Z,11.50
2018-05-09T01:51:22.913Z,11.40
2018-05-09T01:53:50.446Z,11.40
2018-05-09T01:56:18.724Z,11.50
2018-05-09T01:58:46.277Z,11.40
2018-05-09T02:01:14.544Z,11.30
2018-05-09T02:03:42.208Z,11.20
2018-05-09T02:06:09.749Z,11.20
2018-05-09T02:08:38.114Z,11.10
2018-05-09T02:11:05.655Z,11.10
2018-05-09T02:13:33.948Z,11.10
2018-05-09T02:16:01.495Z,11.10
2018-05-09T02:18:29.837Z,11.10
2018-05-09T02:20:57.358Z,11.10
2018-05-09T02:23:24.889Z,11.20
2018-05-09T02:25:53.193Z,11.00
2018-05-09T02:28:20.742Z,11.00
2018-05-09T02:30:48.254Z,10.90
2018-05-09T02:33:15.789Z,10.90
2018-05-09T02:35:43.317Z,10.80
2018-05-09T02:38:10.896Z,10.90
2018-05-09T02:40:38.446Z,10.90
2018-05-09T02:43:05.999Z,11.00
2018-05-09T02:45:33.534Z,10.90
2018-05-09T02:48:01.817Z,10.70
2018-05-09T02:50:30.130Z,10.50
2018-05-09T02:52:57.679Z,10.50
2018-05-09T02:55:25.226Z,10.60
2018-05-09T02:57:52.737Z,10.60
2018-05-09T03:00:20.257Z,10.50
2018-05-09T03:02:47.789Z,10.50
2018-05-09T03:05:16.105Z,10.40
2018-05-09T03:07:43.651Z,10.40
2018-05-09T03:10:11.186Z,10.40
2018-05-09T03:12:39.501Z,10.40
2018-05-09T03:15:07.005Z,10.30
2018-05-09T03:17:35.306Z,10.00
2018-05-09T03:20:02.830Z,10.00
2018-05-09T03:22:30.360Z,10.00
2018-05-09T03:24:57.864Z,10.10
2018-05-09T03:27:25.451Z,10.10
2018-05-09T03:29:53.583Z,10.00
2018-05-09T03:32:21.808Z,10.00
2018-05-09T03:34:49.317Z,10.00
2018-05-09T03:37:16.898Z,10.00
2018-05-09T03:39:45.189Z,10.00
2018-05-09T03:42:12.705Z,10.00
2018-05-09T03:44:40.256Z,10.10
2018-05-09T03:47:07.762Z,10.20
2018-05-09T03:49:35.301Z,10.10
2018-05-09T03:52:02.837Z,10.00
2018-05-09T03:54:30.359Z,9.90
2018-05-09T03:56:57.891Z,9.90
2018-05-09T03:59:26.195Z,10.00
2018-05-09T04:02:05.384Z,10.00
2018-05-09T04:04:44.726Z,10.10
2018-05-09T04:07:24.733Z,10.20
2018-05-09T04:09:55.741Z,10.10
2018-05-09T04:12:23.255Z,10.10
2018-05-09T04:14:50.851Z,10.10
2018-05-09T04:17:18.327Z,10.10
2018-05-09T04:19:45.844Z,10.00
2018-05-09T04:22:13.384Z,9.90
2018-05-09T04:24:40.901Z,9.80
2018-05-09T04:27:08.422Z,9.70
2018-05-09T04:29:35.963Z,9.70
2018-05-09T04:32:03.498Z,9.70
2018-05-09T04:34:31.013Z,9.70
2018-05-09T04:36:58.574Z,9.90
2018-05-09T04:39:26.164Z,10.00
2018-05-09T04:41:53.686Z,10.20
2018-05-09T04:44:21.230Z,10.40
2018-05-09T04:46:49.510Z,10.70
2018-05-09T04:49:17.123Z,10.70
2018-05-09T04:51:44.569Z,11.00
2018-05-09T04:54:12.133Z,11.20
2018-05-09T04:56:39.638Z,11.50
2018-05-09T04:59:07.224Z,11.70
2018-05-09T05:01:35.510Z,12.00
2018-05-09T05:04:03.810Z,12.10
2018-05-09T05:06:31.330Z,12.00
2018-05-09T05:08:59.644Z,12.40
2018-05-09T05:11:27.171Z,12.40
2018-05-09T05:13:55.472Z,12.70
2018-05-09T05:16:22.980Z,12.70
2018-05-09T05:18:50.521Z,12.90
2018-05-09T05:21:18.043Z,13.10
2018-05-09T05:23:46.481Z,13.20
2018-05-09T05:26:14.038Z,13.40
2018-05-09T05:28:41.578Z,13.40
2018-05-09T05:31:09.111Z,13.60
2018-05-09T05:33:36.646Z,13.70
2018-05-09T05:36:05.454Z,13.90
2018-05-09T05:38:32.984Z,13.90
2018-05-09T05:41:00.515Z,14.10
2018-05-09T05:43:28.027Z,14.00
2018-05-09T05:45:55.557Z,13.90
2018-05-09T05:48:23.166Z,13.90
2018-05-09T05:50:50.713Z,13.90
2018-05-09T05:53:18.265Z,14.00
2018-05-09T05:55:45.803Z,14.00
2018-05-09T05:58:13.318Z,14.00
2018-05-09T06:00:41.629Z,14.00
2018-05-09T06:03:09.130Z,14.00
2018-05-09T06:05:36.880Z,14.00
2018-05-09T06:08:05.172Z,13.90
2018-05-09T06:10:32.732Z,13.90
2018-05-09T06:13:00.285Z,13.90
2018-05-09T06:15:27.840Z,13.90
2018-05-09T06:17:55.378Z,13.90
2018-05-09T06:20:22.890Z,14.00
2018-05-09T06:22:50.425Z,14.10
2018-05-09T06:25:17.946Z,14.20
2018-05-09T06:27:45.505Z,14.20
2018-05-09T06:30:13.031Z,14.30
2018-05-09T06:32:40.582Z,14.40
2018-05-09T06:35:08.877Z,14.60
2018-05-09T06:37:36.430Z,14.60
2018-05-09T06:40:03.937Z,14.80
2018-05-09T06:42:32.238Z,14.90
2018-05-09T06:44:59.748Z,14.90
2018-05-09T06:47:27.289Z,15.00
2018-05-09T06:49:54.795Z,15.10
2018-05-09T06:52:22.338Z,15.20
2018-05-09T06:54:52.258Z,15.40
2018-05-09T06:57:20.541Z,15.50
2018-05-09T06:59:48.861Z,15.60
2018-05-09T07:02:16.375Z,15.60
2018-05-09T07:04:44.677Z,16.00
2018-05-09T07:07:12.282Z,16.00
2018-05-09T07:09:40.604Z,16.60
2018-05-09T07:12:08.106Z,16.50
2018-05-09T07:14:35.648Z,16.90
2018-05-09T07:17:03.157Z,17.10
2018-05-09T07:19:31.466Z,17.50
2018-05-09T07:21:59.006Z,17.50
2018-05-09T07:24:26.545Z,17.80
2018-05-09T07:26:54.077Z,17.90
2018-05-09T07:29:21.592Z,18.00
2018-05-09T07:31:49.111Z,18.10
2018-05-09T07:34:16.727Z,18.20
2018-05-09T07:36:44.250Z,18.20
2018-05-09T07:39:12.555Z,18.00
2018-05-09T07:41:40.069Z,18.00
2018-05-09T07:44:07.610Z,18.20
2018-05-09T07:46:35.134Z,18.30
2018-05-09T07:49:02.675Z,18.30
2018-05-09T07:51:30.202Z,18.40
2018-05-09T07:53:57.739Z,18.60
2018-05-09T07:56:25.251Z,18.70
2018-05-09T07:58:53.001Z,18.70
2018-05-09T08:01:20.550Z,18.70
2018-05-09T08:03:48.065Z,18.80
2018-05-09T08:06:15.610Z,19.10
2018-05-09T08:08:43.178Z,19.30
2018-05-09T08:11:10.715Z,19.40
2018-05-09T08:13:39.942Z,19.70
2018-05-09T08:16:07.517Z,19.60
2018-05-09T08:18:35.067Z,19.70
2018-05-09T08:21:02.630Z,19.90
2018-05-09T08:23:30.147Z,20.00
2018-05-09T08:25:57.681Z,20.20
2018-05-09T08:28:25.227Z,20.40
2018-05-09T08:30:52.771Z,20.50
2018-05-09T08:33:20.302Z,20.60
2018-05-09T08:35:47.878Z,20.50
2018-05-09T08:38:15.396Z,20.50
2018-05-09T08:40:43.674Z,20.70
2018-05-09T08:43:12.011Z,21.00
2018-05-09T08:45:39.517Z,20.90
2018-05-09T08:48:07.822Z,21.10
2018-05-09T08:50:35.326Z,21.00
2018-05-09T08:53:02.862Z,21.20
2018-05-09T08:55:30.415Z,21.20
2018-05-09T08:57:57.984Z,21.10
2018-05-09T09:00:25.518Z,21.20
2018-05-09T09:02:53.042Z,21.60
2018-05-09T09:05:21.455Z,21.60
2018-05-09T09:07:48.918Z,21.60
2018-05-09T09:10:16.462Z,21.60
2018-05-09T09:12:43.984Z,21.50
2018-05-09T09:15:11.536Z,21.40
2018-05-09T09:17:39.079Z,21.90
2018-05-09T09:20:06.626Z,22.30
2018-05-09T09:22:34.139Z,22.40
2018-05-09T09:25:02.447Z,22.90
2018-05-09T09:27:30.589Z,22.90
2018-05-09T09:29:58.929Z,23.30
2018-05-09T09:32:26.567Z,23.20
2018-05-09T09:34:54.137Z,23.00
2018-05-09T09:37:21.680Z,22.80
2018-05-09T09:39:49.231Z,22.30
2018-05-09T09:42:16.758Z,22.30
2018-05-09T09:44:44.297Z,22.20
2018-05-09T09:47:11.834Z,22.20
2018-05-09T09:49:39.361Z,22.20
2018-05-09T09:52:06.953Z,22.30
2018-05-09T09:54:34.467Z,22.40
2018-05-09T09:57:03.082Z,22.20
2018-05-09T09:59:30.659Z,22.20
2018-05-09T10:01:58.241Z,22.30
2018-05-09T10:04:26.118Z,22.60
2018-05-09T10:06:54.484Z,22.40
2018-05-09T10:09:22.049Z,22.40
2018-05-09T10:11:49.666Z,22.60
2018-05-09T10:14:17.250Z,22.80
2018-05-09T10:16:44.875Z,22.80
2018-05-09T10:19:12.437Z,22.60
2018-05-09T10:21:40.074Z,22.80
2018-05-09T10:24:08.477Z,22.70
2018-05-09T10:26:36.033Z,22.70
2018-05-09T10:29:04.037Z,22.90
2018-05-09T10:31:35.730Z,23.10
2018-05-09T10:34:03.764Z,23.30
2018-05-09T10:36:32.129Z,23.60
2018-05-09T10:38:59.740Z,23.70
2018-05-09T10:41:28.127Z,23.70
2018-05-09T10:43:56.551Z,23.50
2018-05-09T10:46:24.109Z,23.40
2018-05-09T10:48:51.674Z,23.50
2018-05-09T10:51:20.367Z,23.60
2018-05-09T10:53:48.115Z,23.60
2018-05-09T10:56:16.040Z,23.80
2018-05-09T10:58:44.016Z,24.20
2018-05-09T11:01:16.212Z,24.60
2018-05-09T11:03:44.122Z,25.10
2018-05-09T11:06:11.824Z,25.60
2018-05-09T11:08:39.399Z,26.20
2018-05-09T11:11:06.995Z,26.40
2018-05-09T11:13:34.565Z,26.50
2018-05-09T11:16:02.128Z,26.10
2018-05-09T11:18:31.496Z,25.30
2018-05-09T11:20:59.299Z,25.30
2018-05-09T11:23:26.861Z,24.70
2018-05-09T11:25:54.693Z,24.00
2018-05-09T11:28:22.269Z,23.60
2018-05-09T11:30:49.891Z,23.30
2018-05-09T11:33:17.504Z,23.30
2018-05-09T11:35:45.088Z,23.20
2018-05-09T11:38:12.786Z,23.40
2018-05-09T11:40:40.341Z,23.50
2018-05-09T11:43:07.926Z,23.50
2018-05-09T11:45:35.479Z,23.60
2018-05-09T11:48:03.048Z,23.70
2018-05-09T11:50:30.633Z,24.00
2018-05-09T11:52:58.192Z,24.00
2018-05-09T11:55:25.776Z,23.80
2018-05-09T11:57:54.110Z,23.90
2018-05-09T12:00:21.689Z,23.80
2018-05-09T12:02:49.234Z,24.10
2018-05-09T12:05:16.854Z,24.60
2018-05-09T12:07:44.394Z,24.70
2018-05-09T12:10:12.645Z,24.30
2018-05-09T12:12:40.925Z,24.10
2018-05-09T12:15:09.278Z,23.30
2018-05-09T12:17:36.824Z,23.30
2018-05-09T12:20:04.349Z,23.20
2018-05-09T12:22:32.733Z,23.60
2018-05-09T12:25:01.094Z,23.70
2018-05-09T12:27:29.479Z,23.60
2018-05-09T12:29:57.822Z,23.60
2018-05-09T12:32:25.375Z,23.60
2018-05-09T12:34:52.926Z,23.40
2018-05-09T12:37:20.495Z,23.20
2018-05-09T12:39:48.517Z,23.40
2018-05-09T12:42:16.081Z,23.50
2018-05-09T12:44:44.479Z,23.70
2018-05-09T12:47:12.070Z,23.70
2018-05-09T12:49:39.674Z,23.50
2018-05-09T12:52:08.076Z,23.40
2018-05-09T12:54:35.754Z,23.40
2018-05-09T12:57:03.283Z,23.40
2018-05-09T12:59:30.909Z,23.40
2018-05-09T13:01:58.523Z,23.30
2018-05-09T13:04:26.114Z,23.30
2018-05-09T13:06:53.677Z,23.40
2018-05-09T13:09:21.222Z,23.50
2018-05-09T13:11:49.537Z,23.50
2018-05-09T13:14:17.962Z,23.50
2018-05-09T13:16:45.569Z,23.50
2018-05-09T13:19:13.251Z,23.50
2018-05-09T13:21:41.551Z,23.40
2018-05-09T13:24:09.153Z,23.40
2018-05-09T13:26:36.799Z,23.40
2018-05-09T13:29:04.404Z,23.30
2018-05-09T13:31:32.009Z,23.10
2018-05-09T13:33:59.588Z,22.90
2018-05-09T13:36:27.141Z,22.80
2018-05-09T13:38:54.778Z,22.90
2018-05-09T13:41:22.316Z,23.10
2018-05-09T13:43:51.014Z,23.10
2018-05-09T13:46:18.629Z,23.10
2018-05-09T13:48:46.212Z,23.20
2018-05-09T13:51:13.862Z,23.20
2018-05-09T13:53:41.447Z,23.10
2018-05-09T13:56:09.069Z,23.10
2018-05-09T13:58:38.221Z,23.10
2018-05-09T14:01:05.804Z,23.10
2018-05-09T14:03:34.183Z,23.00
2018-05-09T14:06:01.709Z,23.00
2018-05-09T14:08:30.080Z,22.80
2018-05-09T14:10:59.043Z,22.70
2018-05-09T14:13:26.739Z,22.60
2018-05-09T14:15:54.359Z,22.70
2018-05-09T14:18:21.963Z,22.60
2018-05-09T14:20:49.566Z,22.50
2018-05-09T14:23:18.032Z,22.70
2018-05-09T14:25:45.777Z,22.70
2018-05-09T14:28:13.598Z,22.70
2018-05-09T14:30:41.166Z,22.60
2018-05-09T14:33:08.785Z,22.60
2018-05-09T14:35:36.351Z,22.70
2018-05-09T14:38:03.916Z,22.70
2018-05-09T14:40:32.180Z,22.70
2018-05-09T14:42:59.826Z,22.80
2018-05-09T14:45:27.430Z,22.70
2018-05-09T14:47:55.001Z,22.60
2018-05-09T14:50:22.631Z,22.50
2018-05-09T14:52:50.217Z,22.40
2018-05-09T14:55:20.673Z,22.30
2018-05-09T14:57:49.918Z,22.20
2018-05-09T15:00:18.383Z,22.40
2018-05-09T15:02:45.960Z,22.40
2018-05-09T15:05:13.540Z,22.40
2018-05-09T15:07:42.071Z,22.50
2018-05-09T15:10:09.736Z,22.40
2018-05-09T15:12:37.318Z,22.50
2018-05-09T15:15:04.966Z,22.50
2018-05-09T15:17:32.616Z,22.50
2018-05-09T15:20:00.988Z,22.80
2018-05-09T15:22:29.395Z,23.00
2018-05-09T15:24:56.995Z,23.00
2018-05-09T15:27:24.584Z,23.10
2018-05-09T15:29:52.815Z,23.10
2018-05-09T15:32:20.471Z,23.10
2018-05-09T15:34:48.095Z,23.00
2018-05-09T15:37:15.720Z,23.10
2018-05-09T15:39:43.321Z,23.00
2018-05-09T15:42:11.995Z,23.00
2018-05-09T15:44:40.471Z,23.20
2018-05-09T15:47:07.986Z,23.20
2018-05-09T15:49:35.674Z,23.30
2018-05-09T15:52:03.264Z,23.20
2018-05-09T15:54:30.921Z,23.20
2018-05-09T15:56:58.628Z,23.20
2018-05-09T15:59:26.264Z,23.20
2018-05-09T16:01:53.910Z,23.10
2018-05-09T16:04:22.275Z,23.10
2018-05-09T16:06:49.881Z,23.10
2018-05-09T16:09:18.297Z,22.90
2018-05-09T16:11:46.021Z,22.90
2018-05-09T16:14:13.651Z,22.70
2018-05-09T16:16:41.450Z,22.50
2018-05-09T16:19:09.901Z,22.30
2018-05-09T16:21:37.582Z,22.20
2018-05-09T16:24:06.499Z,22.20
2018-05-09T16:26:34.070Z,22.20
2018-05-09T16:29:01.717Z,22.20
2018-05-09T16:31:30.250Z,22.30
2018-05-09T16:33:58.646Z,22.30
2018-05-09T16:36:26.260Z,22.30
2018-05-09T16:38:53.981Z,22.20
2018-05-09T16:41:21.826Z,22.20
2018-05-09T16:43:50.167Z,22.10
2018-05-09T16:46:18.593Z,22.20
2018-05-09T16:48:47.832Z,22.20
2018-05-09T16:51:16.618Z,22.10
2018-05-09T16:53:44.266Z,22.20
2018-05-09T16:56:11.885Z,22.10
2018-05-09T16:58:40.864Z,22.00
2018-05-09T17:01:08.751Z,22.00
2018-05-09T17:03:36.410Z,22.00
2018-05-09T17:06:04.753Z,21.80
2018-05-09T17:08:33.213Z,21.90
2018-05-09T17:11:01.566Z,22.00
2018-05-09T17:13:29.139Z,21.90
2018-05-09T17:15:56.742Z,21.90
2018-05-09T17:18:24.372Z,21.90
2018-05-09T17:20:51.996Z,21.90
2018-05-09T17:23:20.456Z,21.70
2018-05-09T17:25:48.043Z,21.70
2018-05-09T17:28:16.859Z,21.70
2018-05-09T17:30:44.629Z,21.70
2018-05-09T17:33:12.452Z,21.80
2018-05-09T17:35:40.815Z,21.90
2018-05-09T17:38:08.691Z,21.80
2018-05-09T17:40:36.313Z,21.70
2018-05-09T17:43:03.926Z,21.60
2018-05-09T17:48:18.970Z,21.60
2018-05-09T17:50:46.545Z,21.40
2018-05-09T17:53:14.968Z,21.10
2018-05-09T17:55:42.525Z,20.90
2018-05-09T17:58:11.349Z,20.60
2018-05-09T18:00:39.941Z,20.60
2018-05-09T18:03:07.535Z,20.50
2018-05-09T18:05:35.183Z,20.30
2018-05-09T18:08:06.527Z,20.10
2018-05-09T18:10:35.049Z,19.90
2018-05-09T18:13:02.768Z,19.90
2018-05-09T18:18:24.767Z,19.60
2018-05-09T18:20:52.567Z,19.60
2018-05-09T18:23:20.298Z,19.50
2018-05-09T18:25:47.912Z,19.40
2018-05-09T18:28:15.614Z,19.30
2018-05-09T18:30:43.376Z,19.20
2018-05-09T18:33:15.622Z,19.30
2018-05-09T18:35:43.904Z,19.10
2018-05-09T18:38:12.153Z,19.00
2018-05-09T18:40:42.680Z,18.90
2018-05-09T18:43:11.032Z,18.80
2018-05-09T18:48:32.469Z,18.80
2018-05-09T18:51:00.174Z,18.70
2018-05-09T18:53:28.121Z,18.80
2018-05-09T18:55:57.447Z,18.80
2018-05-09T18:58:26.002Z,18.80
2018-05-09T19:00:53.746Z,18.80
2018-05-09T19:03:21.525Z,18.80
2018-05-09T19:05:49.397Z,18.80
2018-05-09T19:08:17.903Z,18.60
2018-05-09T19:10:45.633Z,18.60
2018-05-09T19:13:13.280Z,18.60
2018-05-09T19:15:41.158Z,18.50
2018-05-09T19:18:08.830Z,18.40
2018-05-09T19:20:36.442Z,18.40
2018-05-09T19:28:43.742Z,18.10
2018-05-09T19:31:12.379Z,18.00
2018-05-09T19:36:30.815Z,18.10
2018-05-09T19:38:59.159Z,18.00
2018-05-09T19:41:27.682Z,18.00
2018-05-09T19:43:55.358Z,18.00
2018-05-09T19:46:23.676Z,18.10
2018-05-09T19:49:05.861Z,18.10
2018-05-09T19:51:33.692Z,18.00
2018-05-09T19:54:05.271Z,17.90
2018-05-09T19:56:35.783Z,17.90
2018-05-09T19:59:06.827Z,17.80
2018-05-09T20:01:39.932Z,17.70
2018-05-09T20:06:54.980Z,17.70
2018-05-09T20:09:24.903Z,17.50
2018-05-09T20:11:59.944Z,17.30
2018-05-09T20:20:57.533Z,17.50
2018-05-09T20:23:26.590Z,17.50
2018-05-09T20:25:54.405Z,17.60
2018-05-09T20:28:22.731Z,17.50
2018-05-09T20:30:55.937Z,17.50
2018-05-09T20:36:11.168Z,17.20
2018-05-09T20:38:52.955Z,17.10
2018-05-09T20:44:24.790Z,16.80
2018-05-09T20:46:55.917Z,16.70
2018-05-09T20:52:11.162Z,16.70
2018-05-09T20:54:41.983Z,16.60
2018-05-09T20:57:09.823Z,16.60
2018-05-09T20:59:37.626Z,16.50
2018-05-09T21:02:06.412Z,16.50
2018-05-09T21:04:34.108Z,16.40
2018-05-09T21:07:01.979Z,16.40
2018-05-09T21:09:30.016Z,16.40
2018-05-09T21:12:11.549Z,16.30
2018-05-09T21:17:30.307Z,16.20
2018-05-09T21:19:58.970Z,16.10
2018-05-09T21:22:41.899Z,16.10
2018-05-09T21:25:19.479Z,16.20
2018-05-09T21:27:47.855Z,16.10
2018-05-09T21:34:29.251Z,16.10
2018-05-09T21:36:58.548Z,16.10
2018-05-09T21:42:48.930Z,15.90
2018-05-09T21:45:16.747Z,15.90
2018-05-09T21:50:38.500Z,15.80
2018-05-09T21:53:07.253Z,15.80
2018-05-09T21:56:27.053Z,15.80
2018-05-09T21:58:54.828Z,15.80
2018-05-09T22:01:23.504Z,15.80
2018-05-09T22:03:54.079Z,15.80
2018-05-09T22:06:23.785Z,15.70
2018-05-09T22:08:51.543Z,15.60
2018-05-09T22:14:18.619Z,15.30
2018-05-09T22:16:47.026Z,15.30
2018-05-09T22:19:29.213Z,15.10
2018-05-09T22:21:57.931Z,15.10
2018-05-09T22:24:25.627Z,15.10
2018-05-09T22:26:57.779Z,15.30
2018-05-09T22:32:11.974Z,15.00
2018-05-09T22:35:09.700Z,15.00
2018-05-09T22:37:38.371Z,15.00
2018-05-09T22:40:06.597Z,15.00
2018-05-09T22:42:34.358Z,15.00
2018-05-09T22:45:04.215Z,14.90
2018-05-09T22:53:21.563Z,14.90
2018-05-09T22:55:50.205Z,14.70
2018-05-09T22:58:18.011Z,14.70
2018-05-09T23:00:46.547Z,14.70
2018-05-09T23:55:16.932Z,14.00
2018-05-09T23:57:44.775Z,14.00
